createdAt,value
2018-07-22T00:01:14.226Z,97532.32
2018-07-22T00:03:43.500Z,97532.89
2018-07-22T00:06:12.748Z,97526.16
2018-07-22T00:08:42.000Z,97524.59
2018-07-22T00:11:11.266Z,97530.98
2018-07-22T00:13:40.702Z,97529.05
2018-07-22T00:16:10.059Z,97526.42
2018-07-22T00:18:39.404Z,97528.91
2018-07-22T00:21:08.715Z,97550.11
2018-07-22T00:23:38.001Z,97529.05
2018-07-22T00:26:07.352Z,97531.27
2018-07-22T00:28:36.727Z,97528.77
2018-07-22T00:31:06.059Z,97529.31
2018-07-22T00:33:35.324Z,97526.36
2018-07-22T00:36:04.695Z,97523.44
2018-07-22T00:38:34.060Z,97527.70
2018-07-22T00:41:03.468Z,97529.66
2018-07-22T00:43:32.744Z,97523.67
2018-07-22T00:46:02.083Z,97526.77
2018-07-22T00:48:31.405Z,97522.78
2018-07-22T00:51:00.730Z,97532.44
2018-07-22T00:53:30.075Z,97530.00
2018-07-22T00:55:59.370Z,97519.23
2018-07-22T00:58:28.648Z,97522.33
2018-07-22T01:00:57.909Z,97528.00
2018-07-22T01:03:27.184Z,97521.81
2018-07-22T01:05:56.440Z,97522.67
2018-07-22T01:08:26.634Z,97520.78
2018-07-22T01:10:55.909Z,97517.17
2018-07-22T01:13:25.165Z,97523.16
2018-07-22T01:15:54.402Z,97521.33
2018-07-22T01:18:23.699Z,97524.02
2018-07-22T01:20:52.953Z,97517.03
2018-07-22T01:23:22.177Z,97518.67
2018-07-22T01:25:51.181Z,97528.06
2018-07-22T01:28:20.442Z,97529.63
2018-07-22T01:30:49.697Z,97525.05
2018-07-22T01:33:18.942Z,97531.92
2018-07-22T01:35:48.277Z,97527.34
2018-07-22T01:38:17.498Z,97528.14
2018-07-22T01:40:47.010Z,97530.83
2018-07-22T01:43:16.300Z,97533.38
2018-07-22T01:45:45.502Z,97530.12
2018-07-22T01:48:14.736Z,97528.77
2018-07-22T01:50:43.977Z,97530.45
2018-07-22T01:53:13.224Z,97525.91
2018-07-22T01:55:42.465Z,97536.00
2018-07-22T01:58:11.703Z,97535.69
2018-07-22T02:00:40.978Z,97532.84
2018-07-22T02:03:10.296Z,97538.72
2018-07-22T02:05:39.573Z,97535.74
2018-07-22T02:08:08.883Z,97535.82
2018-07-22T02:10:38.194Z,97537.91
2018-07-22T02:13:07.483Z,97534.68
2018-07-22T02:15:36.797Z,97535.00
2018-07-22T02:18:06.157Z,97539.18
2018-07-22T02:20:35.458Z,97537.97
2018-07-22T02:23:04.737Z,97530.70
2018-07-22T02:25:34.036Z,97536.55
2018-07-22T02:28:03.302Z,97533.88
2018-07-22T02:30:32.597Z,97526.80
2018-07-22T02:33:01.918Z,97531.66
2018-07-22T02:35:31.255Z,97526.48
2018-07-22T02:38:00.594Z,97521.01
2018-07-22T02:40:29.892Z,97519.87
2018-07-22T02:42:59.230Z,97523.10
2018-07-22T02:45:28.528Z,97522.77
2018-07-22T02:47:57.807Z,97522.25
2018-07-22T02:50:27.153Z,97517.67
2018-07-22T02:52:56.520Z,97521.16
2018-07-22T02:55:25.805Z,97518.19
2018-07-22T02:57:55.117Z,97511.41
2018-07-22T03:00:24.375Z,97514.84
2018-07-22T03:02:53.661Z,97523.56
2018-07-22T03:05:22.948Z,97527.55
2018-07-22T03:07:52.239Z,97524.58
2018-07-22T03:10:21.486Z,97522.22
2018-07-22T03:12:50.754Z,97518.39
2018-07-22T03:15:20.005Z,97516.79
2018-07-22T03:17:49.281Z,97522.56
2018-07-22T03:20:18.538Z,97524.66
2018-07-22T03:22:47.782Z,97518.98
2018-07-22T03:25:17.045Z,97522.45
2018-07-22T03:27:46.351Z,97525.79
2018-07-22T03:30:15.595Z,97518.86
2018-07-22T03:32:44.873Z,97524.19
2018-07-22T03:35:14.146Z,97528.48
2018-07-22T03:37:43.374Z,97529.30
2018-07-22T03:40:12.647Z,97535.70
2018-07-22T03:42:41.936Z,97535.67
2018-07-22T03:45:11.218Z,97531.32
2018-07-22T03:47:40.490Z,97538.64
2018-07-22T03:50:09.858Z,97535.41
2018-07-22T03:52:39.160Z,97538.85
2018-07-22T03:55:08.422Z,97541.55
2018-07-22T03:57:37.819Z,97541.55
2018-07-22T04:00:07.223Z,97538.70
2018-07-22T04:02:36.485Z,97544.08
2018-07-22T04:05:05.996Z,97543.53
2018-07-22T04:07:35.236Z,97545.97
2018-07-22T04:10:04.566Z,97539.23
2018-07-22T04:12:33.799Z,97541.62
2018-07-22T04:15:03.018Z,97544.63
2018-07-22T04:17:32.243Z,97546.98
2018-07-22T04:20:01.543Z,97543.53
2018-07-22T04:22:30.720Z,97539.58
2018-07-22T04:24:59.999Z,97549.69
2018-07-22T04:27:29.235Z,97542.52
2018-07-22T04:29:58.687Z,97540.38
2018-07-22T04:32:27.951Z,97542.73
2018-07-22T04:34:57.217Z,97545.89
2018-07-22T04:37:26.465Z,97545.23
2018-07-22T04:39:55.709Z,97551.14
2018-07-22T04:42:24.981Z,97548.86
2018-07-22T04:44:54.234Z,97554.19
2018-07-22T04:47:23.500Z,97554.99
2018-07-22T04:49:52.798Z,97553.56
2018-07-22T04:52:22.038Z,97556.20
2018-07-22T04:54:51.323Z,97561.56
2018-07-22T04:57:20.569Z,97566.78
2018-07-22T04:59:49.899Z,97559.83
2018-07-22T05:02:19.145Z,97565.75
2018-07-22T05:04:48.418Z,97564.92
2018-07-22T05:07:17.671Z,97567.84
2018-07-22T05:09:46.942Z,97569.95
2018-07-22T05:12:16.186Z,97571.15
2018-07-22T05:14:45.483Z,97572.08
2018-07-22T05:17:14.725Z,97581.95
2018-07-22T05:19:43.973Z,97577.58
2018-07-22T05:22:13.242Z,97579.30
2018-07-22T05:24:42.477Z,97587.71
2018-07-22T05:27:11.735Z,97585.84
2018-07-22T05:29:40.978Z,97579.50
2018-07-22T05:32:10.298Z,97583.92
2018-07-22T05:34:39.580Z,97591.27
2018-07-22T05:37:08.904Z,97593.62
2018-07-22T05:39:38.196Z,97593.17
2018-07-22T05:42:07.928Z,97595.77
2018-07-22T05:44:37.186Z,97603.14
2018-07-22T05:47:06.889Z,97602.15
2018-07-22T05:49:36.165Z,97607.37
2018-07-22T05:52:05.211Z,97605.74
2018-07-22T05:54:34.466Z,97600.48
2018-07-22T05:57:03.810Z,97605.28
2018-07-22T05:59:33.092Z,97607.23
2018-07-22T06:02:02.341Z,97602.79
2018-07-22T06:04:31.567Z,97609.08
2018-07-22T06:07:00.904Z,97607.70
2018-07-22T06:09:30.170Z,97609.40
2018-07-22T06:11:59.205Z,97609.80
2018-07-22T06:14:28.550Z,97610.22
2018-07-22T06:16:57.823Z,97614.03
2018-07-22T06:19:27.086Z,97618.82
2018-07-22T06:21:56.347Z,97619.61
2018-07-22T06:24:25.563Z,97618.94
2018-07-22T06:26:54.796Z,97615.15
2018-07-22T06:29:24.065Z,97621.75
2018-07-22T06:31:53.373Z,97628.27
2018-07-22T06:34:22.630Z,97623.75
2018-07-22T06:36:51.876Z,97624.92
2018-07-22T06:39:21.239Z,97624.42
2018-07-22T06:41:50.488Z,97625.73
2018-07-22T06:44:19.723Z,97619.46
2018-07-22T06:46:48.966Z,97624.98
2018-07-22T06:49:18.224Z,97628.02
2018-07-22T06:51:47.451Z,97632.25
2018-07-22T06:54:16.775Z,97629.70
2018-07-22T06:56:45.979Z,97633.00
2018-07-22T06:59:15.233Z,97637.02
2018-07-22T07:01:44.519Z,97629.87
2018-07-22T07:04:13.752Z,97638.06
2018-07-22T07:06:43.114Z,97639.58
2018-07-22T07:09:12.870Z,97629.05
2018-07-22T07:11:42.116Z,97638.08
2018-07-22T07:14:11.805Z,97633.45
2018-07-22T07:16:41.083Z,97638.15
2018-07-22T07:19:10.328Z,97634.64
2018-07-22T07:21:39.644Z,97636.09
2018-07-22T07:24:08.948Z,97639.03
2018-07-22T07:26:38.307Z,97650.31
2018-07-22T07:29:07.479Z,97640.55
2018-07-22T07:31:36.743Z,97637.28
2018-07-22T07:34:06.261Z,97635.39
2018-07-22T07:36:35.564Z,97633.05
2018-07-22T07:39:07.893Z,97632.08
2018-07-22T07:41:37.349Z,97634.43
2018-07-22T07:44:06.720Z,97635.95
2018-07-22T07:46:36.051Z,97635.82
2018-07-22T07:49:05.153Z,97628.14
2018-07-22T07:51:34.238Z,97634.84
2018-07-22T07:54:03.525Z,97632.64
2018-07-22T07:56:32.757Z,97633.31
2018-07-22T07:59:02.039Z,97636.97
2018-07-22T08:01:31.341Z,97640.58
2018-07-22T08:04:00.636Z,97636.95
2018-07-22T08:06:29.912Z,97643.88
2018-07-22T08:08:59.194Z,97644.49
2018-07-22T08:11:28.436Z,97640.98
2018-07-22T08:13:57.694Z,97649.50
2018-07-22T08:16:26.637Z,97647.11
2018-07-22T08:18:56.440Z,97642.23
2018-07-22T08:21:26.477Z,97640.81
2018-07-22T08:23:54.272Z,97638.73
2018-07-22T08:26:23.511Z,97636.78
2018-07-22T08:29:24.955Z,97642.20
2018-07-22T08:31:54.205Z,97645.27
2018-07-22T08:34:23.529Z,97644.73
2018-07-22T08:36:52.789Z,97651.34
2018-07-22T08:39:23.313Z,97639.75
2018-07-22T08:41:53.261Z,97649.28
2018-07-22T08:44:22.630Z,97643.63
2018-07-22T08:46:51.861Z,97649.98
2018-07-22T08:49:21.306Z,97646.70
2018-07-22T08:51:50.561Z,97648.06
2018-07-22T08:54:19.983Z,97653.42
2018-07-22T08:56:48.977Z,97653.22
2018-07-22T08:59:18.310Z,97658.46
2018-07-22T09:01:47.641Z,97655.38
2018-07-22T09:04:16.954Z,97658.33
2018-07-22T09:06:46.413Z,97655.35
2018-07-22T09:09:15.680Z,97657.16
2018-07-22T09:11:45.126Z,97664.66
2018-07-22T09:14:14.327Z,97663.52
2018-07-22T09:16:43.627Z,97667.77
2018-07-22T09:19:12.902Z,97663.36
2018-07-22T09:21:42.180Z,97660.22
2018-07-22T09:24:11.452Z,97659.16
2018-07-22T09:26:40.813Z,97655.30
2018-07-22T09:29:10.213Z,97651.84
2018-07-22T09:31:39.494Z,97658.38
2018-07-22T09:34:08.870Z,97649.83
2018-07-22T09:36:38.234Z,97653.21
2018-07-22T09:39:10.413Z,97654.41
2018-07-22T09:41:39.731Z,97654.30
2018-07-22T09:44:09.065Z,97659.33
2018-07-22T09:46:38.357Z,97655.50
2018-07-22T09:49:07.662Z,97656.11
2018-07-22T09:51:36.984Z,97656.47
2018-07-22T09:54:06.284Z,97654.46
2018-07-22T09:56:35.590Z,97652.28
2018-07-22T09:59:04.972Z,97648.36
2018-07-22T10:01:34.181Z,97648.89
2018-07-22T10:04:03.449Z,97656.08
2018-07-22T10:06:32.685Z,97649.94
2018-07-22T10:09:01.927Z,97649.58
2018-07-22T10:11:31.207Z,97674.09
2018-07-22T10:14:00.451Z,97652.50
2018-07-22T10:16:29.713Z,97651.88
2018-07-22T10:18:58.997Z,97642.88
2018-07-22T10:21:28.085Z,97644.58
2018-07-22T10:23:57.430Z,97647.63
2018-07-22T10:26:26.707Z,97645.27
2018-07-22T10:28:55.938Z,97644.16
2018-07-22T10:31:25.252Z,97648.17
2018-07-22T10:33:54.806Z,97647.98
2018-07-22T10:36:24.067Z,97640.75
2018-07-22T10:38:53.433Z,97634.98
2018-07-22T10:41:22.715Z,97636.51
2018-07-22T10:43:52.262Z,97633.80
2018-07-22T10:46:21.563Z,97627.43
2018-07-22T10:48:50.801Z,97643.81
2018-07-22T10:51:20.087Z,97639.40
2018-07-22T10:53:49.367Z,97641.16
2018-07-22T10:56:18.630Z,97647.51
2018-07-22T10:58:47.895Z,97645.37
2018-07-22T11:01:17.172Z,97639.80
2018-07-22T11:03:46.413Z,97641.09
2018-07-22T11:06:15.641Z,97638.80
2018-07-22T11:08:44.910Z,97636.20
2018-07-22T11:11:14.202Z,97632.89
2018-07-22T11:13:43.421Z,97640.39
2018-07-22T11:16:12.667Z,97638.82
2018-07-22T11:18:41.914Z,97636.66
2018-07-22T11:21:11.222Z,97638.76
2018-07-22T11:23:40.434Z,97635.06
2018-07-22T11:26:09.740Z,97633.45
2018-07-22T11:28:39.011Z,97639.27
2018-07-22T11:31:08.216Z,97633.83
2018-07-22T11:33:37.492Z,97645.67
2018-07-22T11:36:06.861Z,97639.92
2018-07-22T11:38:36.094Z,97638.05
2018-07-22T11:41:05.318Z,97630.80
2018-07-22T11:43:34.546Z,97633.56
2018-07-22T11:46:03.847Z,97634.32
2018-07-22T11:48:33.093Z,97631.55
2018-07-22T11:51:02.369Z,97633.03
2018-07-22T11:53:31.647Z,97626.36
2018-07-22T11:56:00.947Z,97631.69
2018-07-22T11:58:30.241Z,97626.20
2018-07-22T12:00:59.656Z,97628.70
2018-07-22T12:03:28.955Z,97628.95
2018-07-22T12:05:58.303Z,97626.50
2018-07-22T12:08:27.545Z,97620.06
2018-07-22T12:10:56.974Z,97621.52
2018-07-22T12:13:26.416Z,97613.38
2018-07-22T12:15:55.743Z,97618.06
2018-07-22T12:18:25.038Z,97604.77
2018-07-22T12:20:54.366Z,97616.56
2018-07-22T12:23:23.658Z,97611.69
2018-07-22T12:25:52.987Z,97614.53
2018-07-22T12:28:22.421Z,97611.80
2018-07-22T12:30:51.783Z,97609.30
2018-07-22T12:33:20.833Z,97607.59
2018-07-22T12:35:50.322Z,97604.09
2018-07-22T12:38:19.670Z,97597.88
2018-07-22T12:40:48.946Z,97598.16
2018-07-22T12:43:18.266Z,97593.48
2018-07-22T12:45:47.562Z,97602.89
2018-07-22T12:48:16.902Z,97600.14
2018-07-22T12:50:46.165Z,97603.06
2018-07-22T12:53:15.565Z,97601.47
2018-07-22T12:55:44.831Z,97595.23
2018-07-22T12:58:14.104Z,97602.06
2018-07-22T13:00:43.366Z,97597.44
2018-07-22T13:03:12.672Z,97602.63
2018-07-22T13:05:41.929Z,97603.44
2018-07-22T13:08:11.179Z,97609.95
2018-07-22T13:10:40.212Z,97604.21
2018-07-22T13:13:09.488Z,97603.45
2018-07-22T13:15:38.718Z,97607.13
2018-07-22T13:18:08.099Z,97607.58
2018-07-22T13:20:37.421Z,97611.55
2018-07-22T13:23:07.100Z,97606.52
2018-07-22T13:25:36.313Z,97628.34
2018-07-22T13:28:05.917Z,97643.31
2018-07-22T13:30:35.165Z,97654.56
2018-07-22T13:33:04.442Z,97664.91
2018-07-22T13:35:33.694Z,97665.41
2018-07-22T13:38:03.069Z,97660.70
2018-07-22T13:40:32.357Z,97650.56
2018-07-22T13:43:01.541Z,97670.40
2018-07-22T13:45:30.913Z,97668.97
2018-07-22T13:48:00.079Z,97677.11
2018-07-22T13:50:29.301Z,97672.34
2018-07-22T13:52:58.542Z,97676.04
2018-07-22T13:55:27.948Z,97674.64
2018-07-22T13:57:57.181Z,97671.61
2018-07-22T14:00:26.575Z,97676.92
2018-07-22T14:02:55.784Z,97676.09
2018-07-22T14:05:24.998Z,97670.45
2018-07-22T14:07:54.218Z,97676.27
2018-07-22T14:10:23.437Z,97677.44
2018-07-22T14:12:52.777Z,97675.11
2018-07-22T14:15:22.038Z,97671.95
2018-07-22T14:17:51.318Z,97675.39
2018-07-22T14:20:20.569Z,97676.41
2018-07-22T14:22:49.831Z,97673.48
2018-07-22T14:25:19.135Z,97669.70
2018-07-22T14:27:48.387Z,97666.89
2018-07-22T14:30:17.619Z,97664.40
2018-07-22T14:32:46.820Z,97668.98
2018-07-22T14:35:16.091Z,97664.48
2018-07-22T14:37:45.341Z,97667.28
2018-07-22T14:40:14.621Z,97659.48
2018-07-22T14:42:44.231Z,97665.25
2018-07-22T14:45:15.757Z,97667.88
2018-07-22T14:47:45.206Z,97671.92
2018-07-22T14:50:14.519Z,97676.42
2018-07-22T14:52:43.769Z,97673.45
2018-07-22T14:55:13.062Z,97672.47
2018-07-22T14:57:42.367Z,97671.86
2018-07-22T15:00:11.716Z,97663.77
2018-07-22T15:02:41.013Z,97652.14
2018-07-22T15:05:10.309Z,97664.67
2018-07-22T15:07:39.618Z,97667.03
2018-07-22T15:10:08.905Z,97661.17
2018-07-22T15:12:38.328Z,97661.60
2018-07-22T15:15:07.704Z,97654.95
2018-07-22T15:17:36.998Z,97652.98
2018-07-22T15:20:07.120Z,97656.73
2018-07-22T15:22:36.465Z,97654.75
2018-07-22T15:25:05.881Z,97653.81
2018-07-22T15:27:35.182Z,97652.09
2018-07-22T15:30:05.015Z,97653.01
2018-07-22T15:32:34.298Z,97653.47
2018-07-22T15:35:03.601Z,97656.67
2018-07-22T15:37:32.872Z,97656.99
2018-07-22T15:40:02.153Z,97667.57
2018-07-22T15:42:31.452Z,97667.23
2018-07-22T15:45:00.717Z,97672.07
2018-07-22T15:47:30.034Z,97665.81
2018-07-22T15:49:59.300Z,97674.27
2018-07-22T15:52:28.621Z,97671.45
2018-07-22T15:54:57.977Z,97674.21
2018-07-22T15:57:27.310Z,97674.02
2018-07-22T15:59:56.593Z,97670.31
2018-07-22T16:02:25.910Z,97668.87
2018-07-22T16:04:55.288Z,97663.61
2018-07-22T16:07:24.640Z,97667.48
2018-07-22T16:09:53.940Z,97663.25
2018-07-22T16:12:22.981Z,97655.45
2018-07-22T16:14:52.274Z,97644.40
2018-07-22T16:17:21.592Z,97644.11
2018-07-22T16:19:50.853Z,97643.00
2018-07-22T16:22:20.114Z,97641.03
2018-07-22T16:24:49.338Z,97636.30
2018-07-22T16:27:18.638Z,97642.33
2018-07-22T16:29:48.033Z,97642.27
2018-07-22T16:32:17.317Z,97643.98
2018-07-22T16:34:46.551Z,97654.23
2018-07-22T16:37:15.575Z,97657.48
2018-07-22T16:39:44.814Z,97656.24
2018-07-22T16:42:14.103Z,97660.66
2018-07-22T16:44:43.415Z,97663.07
2018-07-22T16:47:12.709Z,97662.09
2018-07-22T16:49:41.926Z,97662.02
2018-07-22T16:52:10.981Z,97671.65
2018-07-22T16:54:40.241Z,97683.42
2018-07-22T16:57:09.258Z,97686.67
2018-07-22T16:59:38.286Z,97695.69
2018-07-22T17:02:07.641Z,97703.20
2018-07-22T17:04:36.934Z,97705.20
2018-07-22T17:07:06.297Z,97700.86
2018-07-22T17:09:35.558Z,97707.34
2018-07-22T17:12:04.938Z,97703.19
2018-07-22T17:14:34.361Z,97704.28
2018-07-22T17:17:03.772Z,97703.64
2018-07-22T17:19:40.023Z,97696.77
2018-07-22T17:22:09.322Z,97697.98
2018-07-22T17:24:38.569Z,97696.00
2018-07-22T17:27:07.841Z,97690.22
2018-07-22T17:29:37.200Z,97688.58
2018-07-22T17:32:06.689Z,97692.37
2018-07-22T17:34:36.058Z,97685.38
2018-07-22T17:37:05.434Z,97691.47
2018-07-22T17:39:34.806Z,97691.82
2018-07-22T17:42:07.150Z,97684.69
2018-07-22T17:44:36.598Z,97681.80
2018-07-22T17:47:05.960Z,97688.52
2018-07-22T17:49:35.061Z,97680.23
2018-07-22T17:52:04.379Z,97691.72
2018-07-22T17:54:33.789Z,97692.58
2018-07-22T17:57:03.107Z,97695.22
2018-07-22T17:59:32.526Z,97701.70
2018-07-22T18:02:01.676Z,97703.02
2018-07-22T18:04:31.008Z,97707.10
2018-07-22T18:07:00.270Z,97707.01
2018-07-22T18:09:29.601Z,97707.01
2018-07-22T18:11:58.970Z,97715.28
2018-07-22T18:14:28.281Z,97713.54
2018-07-22T18:16:57.510Z,97720.28
2018-07-22T18:19:26.961Z,97723.52
2018-07-22T18:21:56.337Z,97729.55
2018-07-22T18:24:25.637Z,97730.89
2018-07-22T18:26:54.910Z,97724.16
2018-07-22T18:29:24.216Z,97723.38
2018-07-22T18:31:53.502Z,97726.36
2018-07-22T18:34:23.046Z,97726.62
2018-07-22T18:36:52.403Z,97724.50
2018-07-22T18:39:21.495Z,97728.91
2018-07-22T18:41:50.738Z,97730.49
2018-07-22T18:44:20.854Z,97747.32
2018-07-22T18:46:50.264Z,97753.65
2018-07-22T18:49:20.243Z,97755.21
2018-07-22T18:51:49.498Z,97744.44
2018-07-22T18:54:19.032Z,97744.16
2018-07-22T18:56:48.374Z,97740.06
2018-07-22T18:59:17.762Z,97737.50
2018-07-22T19:01:47.930Z,97737.50
2018-07-22T19:04:17.426Z,97744.23
2018-07-22T19:06:46.689Z,97744.71
2018-07-22T19:09:15.966Z,97742.02
2018-07-22T19:11:45.291Z,97741.86
2018-07-22T19:14:14.650Z,97750.15
2018-07-22T19:16:43.901Z,97750.17
2018-07-22T19:19:13.287Z,97752.37
2018-07-22T19:21:42.593Z,97752.11
2018-07-22T19:24:11.913Z,97758.84
2018-07-22T19:26:41.326Z,97758.84
2018-07-22T19:29:10.607Z,97754.33
2018-07-22T19:31:39.961Z,97760.98
2018-07-22T19:34:09.308Z,97761.38
2018-07-22T19:36:38.650Z,97757.00
2018-07-22T19:39:09.086Z,97762.28
2018-07-22T19:41:38.729Z,97767.17
2018-07-22T19:44:08.609Z,97759.85
2018-07-22T19:46:37.983Z,97758.16
2018-07-22T19:49:07.405Z,97761.50
2018-07-22T19:51:36.707Z,97764.67
2018-07-22T19:54:06.091Z,97773.50
2018-07-22T19:56:36.069Z,97766.34
2018-07-22T19:59:05.466Z,97768.98
2018-07-22T20:01:42.172Z,97768.51
2018-07-22T20:04:13.190Z,97765.59
2018-07-22T20:06:43.532Z,97767.86
2018-07-22T20:09:13.951Z,97773.40
2018-07-22T20:11:43.942Z,97764.30
2018-07-22T20:14:13.201Z,97767.00
2018-07-22T20:16:42.670Z,97774.22
2018-07-22T20:19:11.942Z,97773.76
2018-07-22T20:21:41.326Z,97773.47
2018-07-22T20:24:10.733Z,97773.05
2018-07-22T20:26:40.218Z,97767.80
2018-07-22T20:29:09.583Z,97767.49
2018-07-22T20:31:38.962Z,97766.39
2018-07-22T20:34:08.929Z,97772.00
2018-07-22T20:36:38.121Z,97771.25
2018-07-22T20:39:10.714Z,97767.21
2018-07-22T20:41:42.306Z,97770.38
2018-07-22T20:44:11.682Z,97772.88
2018-07-22T20:46:40.954Z,97771.31
2018-07-22T20:49:10.245Z,97778.83
2018-07-22T20:51:39.557Z,97782.87
2018-07-22T20:54:08.878Z,97783.17
2018-07-22T20:56:38.317Z,97782.95
2018-07-22T20:59:08.541Z,97785.06
2018-07-22T21:01:37.961Z,97793.46
2018-07-22T21:04:07.357Z,97788.56
2018-07-22T21:06:36.698Z,97793.19
2018-07-22T21:09:08.687Z,97787.54
2018-07-22T21:12:56.039Z,97782.63
2018-07-22T21:15:25.391Z,97791.50
2018-07-22T21:17:54.716Z,97794.20
2018-07-22T21:20:24.137Z,97792.59
2018-07-22T21:22:53.456Z,97792.59
2018-07-22T21:25:22.770Z,97798.02
2018-07-22T21:27:52.487Z,97795.92
2018-07-22T21:30:21.826Z,97793.45
2018-07-22T21:32:51.126Z,97792.33
2018-07-22T21:35:20.516Z,97791.36
2018-07-22T21:37:49.851Z,97792.44
2018-07-22T21:40:19.177Z,97791.14
2018-07-22T21:42:48.525Z,97794.11
2018-07-22T21:45:18.175Z,97794.91
2018-07-22T21:47:47.568Z,97795.34
2018-07-22T21:50:17.021Z,97796.67
2018-07-22T21:52:47.067Z,97798.52
2018-07-22T21:55:16.413Z,97800.67
2018-07-22T21:57:46.317Z,97800.77
2018-07-22T22:00:27.377Z,97803.25
2018-07-22T22:02:56.651Z,97805.61
2018-07-22T22:05:25.895Z,97800.19
2018-07-22T22:07:55.252Z,97801.09
2018-07-22T22:10:24.962Z,97803.56
2018-07-22T22:12:54.425Z,97807.82
2018-07-22T22:15:25.134Z,97810.61
2018-07-22T22:17:55.901Z,97814.66
2018-07-22T22:20:25.374Z,97813.94
2018-07-22T22:22:54.768Z,97819.59
2018-07-22T22:25:24.033Z,97821.47
2018-07-22T22:27:53.396Z,97822.02
2018-07-22T22:30:22.715Z,97818.56
2018-07-22T22:32:52.011Z,97815.92
2018-07-22T22:35:21.341Z,97817.53
2018-07-22T22:37:51.413Z,97815.97
2018-07-22T22:40:20.746Z,97812.92
2018-07-22T22:42:50.805Z,97813.81
2018-07-22T22:45:20.055Z,97812.97
2018-07-22T22:47:49.452Z,97811.66
2018-07-22T22:50:18.737Z,97813.23
2018-07-22T22:52:47.978Z,97812.97
2018-07-22T22:55:17.277Z,97815.92
2018-07-22T22:58:03.523Z,97814.53
2018-07-22T23:00:32.797Z,97817.77
2018-07-22T23:03:02.155Z,97817.53
2018-07-22T23:05:31.494Z,97814.59
2018-07-22T23:08:00.806Z,97813.19
2018-07-22T23:10:30.167Z,97817.21
2018-07-22T23:12:59.438Z,97814.52
2018-07-22T23:15:28.767Z,97818.78
2018-07-22T23:17:58.067Z,97816.31
2018-07-22T23:20:27.410Z,97819.02
2018-07-22T23:22:56.665Z,97816.64
2018-07-22T23:25:25.963Z,97809.47
2018-07-22T23:27:55.246Z,97814.27
2018-07-22T23:30:24.549Z,97821.87
2018-07-22T23:32:54.117Z,97815.44
2018-07-22T23:35:23.485Z,97819.73
2018-07-22T23:37:52.807Z,97821.92
2018-07-22T23:40:21.849Z,97822.48
2018-07-22T23:42:51.164Z,97825.70
2018-07-22T23:45:20.466Z,97817.91
2018-07-22T23:47:49.788Z,97818.44
2018-07-22T23:50:19.144Z,97825.16
2018-07-22T23:52:48.419Z,97828.75
2018-07-22T23:55:17.735Z,97827.09
2018-07-22T23:57:47.009Z,97823.91
